Time;durP1;ratioP1;P1;durP2;ratioP2;P2;SDS_P1;SDS_P2;PMS_P1;PMS_P2;Temp;Humidity;BMP_temperature;BMP_pressure;BME280_temperature;BME280_humidity;BME280_pressure;Samples;Min_cycle;Max_cycle;Signal;HPM_P1;HPM_P2
2021/11/15 00:01:43;;;;;;;;;;;7.90;99.90;;;;;;5058029;28;19944;-83
2021/11/15 00:04:09;;;;;;;;;;;7.90;99.90;;;;;;5042285;28;19974;-83
2021/11/15 00:06:35;;;;;;;;;;;8.00;99.90;;;;;;5058894;28;19928;-83
2021/11/15 00:09:00;;;;;;;;;;;8.00;99.90;;;;;;5040198;28;19913;-84
2021/11/15 00:11:27;;;;;;;;;;;8.00;99.90;;;;;;5033477;28;19912;-83
2021/11/15 00:13:52;;;;;;;;;;;8.00;1.00;;;;;;5055793;28;19913;-83
2021/11/15 00:16:18;;;;;;;;;;;8.10;1.00;;;;;;5056226;28;19924;-84
2021/11/15 00:18:43;;;;;;;;;;;8.10;1.00;;;;;;5042085;28;19920;-84
2021/11/15 00:21:09;;;;;;;;;;;8.10;99.90;;;;;;5060359;28;19912;-83
2021/11/15 00:23:34;;;;;;;;;;;8.20;99.90;;;;;;5053087;28;20300;-83
2021/11/15 00:26:00;;;;;;;;;;;8.20;99.90;;;;;;5058789;28;19925;-83
2021/11/15 00:28:26;;;;;;;;;;;8.20;99.90;;;;;;5031413;28;20007;-83
2021/11/15 00:30:51;;;;;;;;;;;8.30;99.90;;;;;;5051147;28;20377;-83
2021/11/15 00:33:17;;;;;;;;;;;8.30;99.90;;;;;;5053068;28;20384;-83
2021/11/15 00:35:42;;;;;;;;;;;8.30;99.90;;;;;;5057485;28;19916;-84
2021/11/15 00:38:08;;;;;;;;;;;8.30;99.90;;;;;;5057155;28;19971;-83
2021/11/15 00:40:33;;;;;;;;;;;8.30;99.90;;;;;;5052545;28;19914;-83
2021/11/15 00:42:59;;;;;;;;;;;8.30;99.90;;;;;;5053022;28;19909;-83
2021/11/15 00:45:24;;;;;;;;;;;8.30;99.90;;;;;;5049486;28;19935;-83
2021/11/15 00:47:50;;;;;;;;;;;8.40;99.90;;;;;;5030680;28;19956;-83
2021/11/15 00:50:17;;;;;;;;;;;8.40;99.90;;;;;;5046476;28;20472;-83
2021/11/15 00:52:44;;;;;;;;;;;8.40;99.90;;;;;;5032737;28;19917;-83
2021/11/15 00:55:10;;;;;;;;;;;8.40;99.90;;;;;;5054547;28;19913;-83
2021/11/15 00:57:35;;;;;;;;;;;8.30;99.90;;;;;;5038069;28;20054;-83
2021/11/15 01:00:02;;;;;;;;;;;8.40;99.90;;;;;;5050409;28;20007;-83
2021/11/15 01:02:28;;;;;;;;;;;8.40;99.90;;;;;;5048445;28;20304;-83
2021/11/15 01:04:53;;;;;;;;;;;8.40;99.90;;;;;;5040345;28;19912;-84
2021/11/15 01:07:18;;;;;;;;;;;8.40;99.90;;;;;;5057623;28;19920;-83
2021/11/15 01:09:44;;;;;;;;;;;8.30;99.90;;;;;;5056732;28;19935;-84
2021/11/15 01:12:09;;;;;;;;;;;8.30;99.90;;;;;;5037571;28;19913;-83
2021/11/15 01:14:35;;;;;;;;;;;8.20;99.90;;;;;;5051938;28;19966;-83
2021/11/15 01:17:02;;;;;;;;;;;8.30;99.90;;;;;;5036107;28;19913;-83
2021/11/15 01:19:27;;;;;;;;;;;8.30;1.00;;;;;;5045012;28;19921;-83
2021/11/15 01:21:53;;;;;;;;;;;8.30;1.00;;;;;;5048227;28;20399;-83
2021/11/15 01:24:18;;;;;;;;;;;8.30;1.00;;;;;;5050893;28;19913;-83
2021/11/15 01:26:44;;;;;;;;;;;8.30;1.00;;;;;;5053270;28;19917;-83
2021/11/15 01:29:11;;;;;;;;;;;8.30;1.00;;;;;;5041151;28;20377;-83
2021/11/15 01:31:38;;;;;;;;;;;8.40;1.00;;;;;;5039531;28;19948;-83
2021/11/15 01:34:04;;;;;;;;;;;8.30;1.00;;;;;;5055841;28;19967;-83
2021/11/15 01:36:30;;;;;;;;;;;8.40;1.00;;;;;;5053246;28;19913;-84
2021/11/15 01:38:56;;;;;;;;;;;8.40;1.00;;;;;;5032604;28;19913;-83
2021/11/15 01:41:22;;;;;;;;;;;8.50;1.00;;;;;;5051277;28;19917;-83
2021/11/15 01:43:47;;;;;;;;;;;8.50;99.90;;;;;;5040500;28;19913;-84
2021/11/15 01:46:13;;;;;;;;;;;8.50;99.90;;;;;;5050948;28;19920;-83
2021/11/15 01:48:38;;;;;;;;;;;8.50;99.90;;;;;;5055257;28;19967;-83
2021/11/15 01:51:04;;;;;;;;;;;8.50;99.90;;;;;;5053576;28;19909;-84
2021/11/15 01:53:29;;;;;;;;;;;8.50;99.90;;;;;;5037438;28;19984;-83
2021/11/15 01:55:55;;;;;;;;;;;8.50;99.90;;;;;;5053873;28;19963;-83
2021/11/15 01:58:20;;;;;;;;;;;8.50;99.90;;;;;;5043851;28;19913;-83
2021/11/15 02:00:51;;;;;;;;;;;8.60;99.90;;;;;;5056158;28;19917;-83
2021/11/15 02:03:17;;;;;;;;;;;8.60;99.90;;;;;;5040850;28;19916;-83
2021/11/15 02:05:43;;;;;;;;;;;8.60;99.90;;;;;;5062957;28;19916;-84
2021/11/15 02:08:08;;;;;;;;;;;8.60;99.90;;;;;;5052503;28;19913;-83
2021/11/15 02:10:34;;;;;;;;;;;8.60;99.90;;;;;;5047750;28;19921;-84
2021/11/15 02:12:59;;;;;;;;;;;8.60;99.90;;;;;;5055639;28;19924;-84
2021/11/15 02:15:25;;;;;;;;;;;8.60;99.90;;;;;;5050660;28;19913;-83
2021/11/15 02:17:51;;;;;;;;;;;8.60;99.90;;;;;;5049379;28;19915;-83
2021/11/15 02:20:18;;;;;;;;;;;8.60;99.90;;;;;;5060891;28;19920;-83
2021/11/15 02:22:44;;;;;;;;;;;8.60;99.90;;;;;;5055941;28;19913;-84
2021/11/15 02:25:11;;;;;;;;;;;8.60;99.90;;;;;;5058963;28;20004;-84
2021/11/15 02:27:37;;;;;;;;;;;8.60;99.90;;;;;;5052588;28;19948;-83
2021/11/15 02:30:09;;;;;;;;;;;8.60;99.90;;;;;;5036802;28;19912;-83
2021/11/15 02:32:34;;;;;;;;;;;8.50;99.90;;;;;;5034961;28;20020;-84
2021/11/15 02:35:01;;;;;;;;;;;8.60;99.90;;;;;;5083533;22;19925;-77
2021/11/15 02:37:27;;;;;;;;;;;8.60;99.90;;;;;;5069885;28;20315;-78
2021/11/15 02:39:53;;;;;;;;;;;8.50;99.90;;;;;;5063461;28;19913;-78
2021/11/15 02:42:18;;;;;;;;;;;8.50;99.90;;;;;;5055857;28;19966;-78
2021/11/15 02:44:44;;;;;;;;;;;8.50;99.90;;;;;;5052571;28;20353;-78
2021/11/15 02:47:09;;;;;;;;;;;8.50;99.90;;;;;;5051285;28;20279;-79
2021/11/15 02:49:35;;;;;;;;;;;8.50;99.90;;;;;;5032040;28;20031;-77
2021/11/15 02:52:00;;;;;;;;;;;8.50;99.90;;;;;;5034179;28;19923;-77
2021/11/15 02:54:26;;;;;;;;;;;8.50;99.90;;;;;;5047770;28;19913;-77
2021/11/15 02:56:51;;;;;;;;;;;8.50;99.90;;;;;;5047946;28;19971;-78
2021/11/15 02:59:17;;;;;;;;;;;8.50;99.90;;;;;;5052061;28;19913;-78
2021/11/15 03:01:46;;;;;;;;;;;8.50;99.90;;;;;;5051095;28;20368;-77
2021/11/15 03:04:13;;;;;;;;;;;8.50;99.90;;;;;;5052165;28;19913;-78
2021/11/15 03:06:38;;;;;;;;;;;8.50;99.90;;;;;;5049583;28;19928;-78
2021/11/15 03:09:04;;;;;;;;;;;8.50;99.90;;;;;;5031448;28;19914;-79
2021/11/15 03:11:29;;;;;;;;;;;8.50;99.90;;;;;;5044206;28;19944;-78
2021/11/15 03:13:54;;;;;;;;;;;8.50;99.90;;;;;;5046191;28;19913;-78
2021/11/15 03:16:20;;;;;;;;;;;8.50;99.90;;;;;;5033863;28;19924;-78
2021/11/15 03:18:46;;;;;;;;;;;8.50;99.90;;;;;;5046792;28;19916;-78
2021/11/15 03:21:11;;;;;;;;;;;8.60;99.90;;;;;;5038095;28;19963;-77
2021/11/15 03:23:39;;;;;;;;;;;8.50;99.90;;;;;;5044982;28;19928;-78
2021/11/15 03:26:05;;;;;;;;;;;8.50;99.90;;;;;;5050108;28;19917;-79
2021/11/15 03:28:32;;;;;;;;;;;8.50;99.90;;;;;;5050578;28;19913;-78
2021/11/15 03:30:59;;;;;;;;;;;8.50;99.90;;;;;;5034717;28;19919;-77
2021/11/15 03:33:25;;;;;;;;;;;8.50;99.90;;;;;;5029369;28;19913;-78
2021/11/15 03:35:50;;;;;;;;;;;8.50;99.90;;;;;;5034527;28;19913;-77
2021/11/15 03:38:16;;;;;;;;;;;8.50;99.90;;;;;;5027244;28;19919;-79
2021/11/15 03:40:42;;;;;;;;;;;8.60;99.90;;;;;;5032399;28;19912;-79
2021/11/15 03:43:07;;;;;;;;;;;8.70;99.90;;;;;;5053352;28;19917;-79
2021/11/15 03:45:34;;;;;;;;;;;8.60;99.90;;;;;;5036292;28;19917;-78
2021/11/15 03:47:59;;;;;;;;;;;8.70;99.90;;;;;;5048782;28;19944;-78
2021/11/15 03:50:25;;;;;;;;;;;8.70;99.90;;;;;;5032899;28;19924;-78
2021/11/15 03:52:51;;;;;;;;;;;8.70;99.90;;;;;;5043576;28;19913;-78
2021/11/15 03:55:18;;;;;;;;;;;8.70;99.90;;;;;;5041651;28;19984;-78
2021/11/15 03:57:44;;;;;;;;;;;8.70;99.90;;;;;;5047459;28;20404;-79
2021/11/15 04:00:11;;;;;;;;;;;8.80;99.90;;;;;;5032572;28;19916;-77
2021/11/15 04:02:38;;;;;;;;;;;8.80;99.90;;;;;;5048933;28;19913;-79
2021/11/15 04:05:06;;;;;;;;;;;8.80;99.90;;;;;;5045332;28;20016;-79
2021/11/15 04:10:09;;;;;;;;;;;8.80;99.90;;;;;;5045242;28;19977;-78
2021/11/15 04:12:35;;;;;;;;;;;8.80;99.90;;;;;;5040749;28;19909;-77
2021/11/15 04:15:01;;;;;;;;;;;8.90;99.90;;;;;;5046022;28;20502;-77
2021/11/15 04:17:27;;;;;;;;;;;8.90;99.90;;;;;;5048294;28;19916;-77
2021/11/15 04:19:53;;;;;;;;;;;8.90;99.90;;;;;;5052679;28;19959;-78
2021/11/15 04:22:18;;;;;;;;;;;8.90;99.90;;;;;;5050118;28;20020;-78
2021/11/15 04:24:44;;;;;;;;;;;8.90;99.90;;;;;;5051543;28;19948;-78
2021/11/15 04:27:10;;;;;;;;;;;8.80;99.90;;;;;;5041162;28;20390;-78
2021/11/15 04:29:35;;;;;;;;;;;8.80;99.90;;;;;;5054909;28;19913;-77
2021/11/15 04:32:05;;;;;;;;;;;8.80;99.90;;;;;;5024193;28;20281;-78
2021/11/15 04:34:31;;;;;;;;;;;8.80;99.90;;;;;;5035643;28;19924;-78
2021/11/15 04:36:57;;;;;;;;;;;8.80;99.90;;;;;;5054151;28;19920;-79
2021/11/15 04:39:22;;;;;;;;;;;8.70;99.90;;;;;;5052101;28;19913;-78
2021/11/15 04:41:48;;;;;;;;;;;8.70;99.90;;;;;;5032692;28;19913;-78
2021/11/15 04:44:14;;;;;;;;;;;8.70;99.90;;;;;;5030594;28;19916;-76
2021/11/15 04:46:39;;;;;;;;;;;8.80;1.00;;;;;;5032553;28;20426;-78
2021/11/15 04:49:05;;;;;;;;;;;8.80;1.00;;;;;;5029042;28;19952;-78
2021/11/15 04:51:30;;;;;;;;;;;8.70;1.00;;;;;;5046837;28;19956;-77
2021/11/15 04:53:56;;;;;;;;;;;8.70;1.00;;;;;;5055277;28;19919;-78
2021/11/15 04:56:21;;;;;;;;;;;8.80;1.00;;;;;;5047363;28;19913;-77
2021/11/15 04:58:49;;;;;;;;;;;8.80;1.00;;;;;;5030472;28;20415;-79
2021/11/15 05:01:14;;;;;;;;;;;8.80;99.90;;;;;;5032281;28;20003;-78
2021/11/15 05:03:40;;;;;;;;;;;8.80;1.00;;;;;;5052512;28;20031;-78
2021/11/15 05:06:05;;;;;;;;;;;8.80;99.90;;;;;;5046756;28;19916;-77
2021/11/15 05:08:31;;;;;;;;;;;8.80;99.90;;;;;;5047632;28;20399;-77
2021/11/15 05:10:56;;;;;;;;;;;8.80;99.90;;;;;;5039569;28;20563;-78
2021/11/15 05:13:22;;;;;;;;;;;8.80;99.90;;;;;;5025671;28;19967;-76
2021/11/15 05:15:47;;;;;;;;;;;8.80;99.90;;;;;;5049641;28;19920;-78
2021/11/15 05:18:13;;;;;;;;;;;8.80;99.90;;;;;;5026437;28;19960;-78
2021/11/15 05:20:38;;;;;;;;;;;8.80;99.90;;;;;;5052187;28;19916;-78
2021/11/15 05:23:04;;;;;;;;;;;8.70;99.90;;;;;;5037100;28;19920;-79
2021/11/15 05:25:29;;;;;;;;;;;8.80;99.90;;;;;;5044206;28;20423;-78
2021/11/15 05:27:55;;;;;;;;;;;8.80;99.90;;;;;;5035754;28;19913;-78
2021/11/15 05:30:21;;;;;;;;;;;8.80;99.90;;;;;;5045526;28;20392;-78
2021/11/15 05:32:47;;;;;;;;;;;8.80;99.90;;;;;;5046790;28;19913;-79
2021/11/15 05:35:13;;;;;;;;;;;8.80;99.90;;;;;;5046100;28;20292;-79
2021/11/15 05:37:39;;;;;;;;;;;8.80;99.90;;;;;;5029294;28;20000;-78
2021/11/15 05:40:05;;;;;;;;;;;8.80;99.90;;;;;;5046419;28;19909;-77
2021/11/15 05:42:31;;;;;;;;;;;8.80;99.90;;;;;;5030155;28;19916;-78
2021/11/15 05:44:56;;;;;;;;;;;8.80;99.90;;;;;;5039857;28;19970;-78
2021/11/15 05:47:22;;;;;;;;;;;8.80;99.90;;;;;;5041339;28;19913;-78
2021/11/15 05:49:47;;;;;;;;;;;8.80;99.90;;;;;;5048026;28;20388;-77
2021/11/15 05:52:14;;;;;;;;;;;8.80;99.90;;;;;;5053775;28;20327;-78
2021/11/15 05:54:40;;;;;;;;;;;8.80;99.90;;;;;;5028580;28;20004;-79
2021/11/15 05:57:05;;;;;;;;;;;8.80;99.90;;;;;;5054404;28;19920;-78
2021/11/15 05:59:31;;;;;;;;;;;8.80;99.90;;;;;;5048729;28;19917;-78
2021/11/15 06:01:56;;;;;;;;;;;8.80;99.90;;;;;;5046218;28;19971;-76
2021/11/15 06:04:22;;;;;;;;;;;8.80;99.90;;;;;;5048180;28;19915;-78
2021/11/15 06:06:47;;;;;;;;;;;8.80;99.90;;;;;;5055945;28;19943;-78
2021/11/15 06:09:13;;;;;;;;;;;8.80;99.90;;;;;;5045726;28;19975;-79
2021/11/15 06:11:38;;;;;;;;;;;8.80;99.90;;;;;;5046984;28;20414;-78
2021/11/15 06:14:04;;;;;;;;;;;8.80;99.90;;;;;;5037343;28;19909;-78
2021/11/15 06:16:32;;;;;;;;;;;8.80;99.90;;;;;;5046639;28;20312;-77
2021/11/15 06:18:57;;;;;;;;;;;8.90;99.90;;;;;;5037492;28;19996;-79
2021/11/15 06:21:23;;;;;;;;;;;8.90;99.90;;;;;;5043786;28;19940;-78
2021/11/15 06:23:48;;;;;;;;;;;8.90;99.90;;;;;;5030581;28;20262;-79
2021/11/15 06:26:14;;;;;;;;;;;8.90;99.90;;;;;;5040760;28;19917;-78
2021/11/15 06:28:40;;;;;;;;;;;8.90;99.90;;;;;;5049446;28;20003;-78
2021/11/15 06:31:09;;;;;;;;;;;8.90;99.90;;;;;;5047131;28;20002;-78
2021/11/15 06:33:34;;;;;;;;;;;8.90;99.90;;;;;;5050164;28;20458;-79
2021/11/15 06:36:00;;;;;;;;;;;8.90;99.90;;;;;;5051235;28;19913;-79
2021/11/15 06:38:25;;;;;;;;;;;8.90;99.90;;;;;;5033721;28;19913;-79
2021/11/15 06:40:51;;;;;;;;;;;8.90;99.90;;;;;;5058778;28;19908;-80
2021/11/15 06:43:16;;;;;;;;;;;9.00;99.90;;;;;;5054212;28;19931;-79
2021/11/15 06:45:42;;;;;;;;;;;9.10;99.90;;;;;;5040266;28;19948;-80
2021/11/15 06:48:07;;;;;;;;;;;9.10;99.90;;;;;;5043206;28;19940;-80
2021/11/15 06:50:33;;;;;;;;;;;9.20;99.90;;;;;;5034923;28;19912;-79
2021/11/15 06:52:58;;;;;;;;;;;9.20;99.90;;;;;;5056147;28;20241;-80
2021/11/15 06:55:25;;;;;;;;;;;9.20;48.60;;;;;;5034212;28;19913;-79
2021/11/15 06:57:51;;;;;;;;;;;9.20;31.90;;;;;;5054018;28;19913;-81
2021/11/15 07:00:19;;;;;;;;;;;9.20;10.60;;;;;;5031899;28;19921;-79
2021/11/15 07:02:45;;;;;;;;;;;9.20;1.00;;;;;;5051455;28;19910;-80
2021/11/15 07:05:11;;;;;;;;;;;9.10;1.00;;;;;;5062851;28;19923;-80
2021/11/15 07:07:38;;;;;;;;;;;9.10;1.00;;;;;;5031642;28;19917;-81
2021/11/15 07:10:05;;;;;;;;;;;9.10;1.00;;;;;;5052161;28;19924;-79
2021/11/15 07:12:30;;;;;;;;;;;9.10;1.00;;;;;;5063884;28;20269;-79
2021/11/15 07:14:56;;;;;;;;;;;9.00;1.00;;;;;;5061796;28;19936;-80
2021/11/15 07:17:21;;;;;;;;;;;9.00;1.00;;;;;;5044346;28;19913;-78
2021/11/15 07:19:46;;;;;;;;;;;9.00;1.00;;;;;;5050408;28;19948;-79
2021/11/15 07:22:12;;;;;;;;;;;9.00;1.00;;;;;;5063494;28;19993;-79
2021/11/15 07:24:37;;;;;;;;;;;8.90;1.00;;;;;;5061803;28;19924;-79
2021/11/15 07:27:03;;;;;;;;;;;8.90;1.00;;;;;;5044346;28;19917;-80
2021/11/15 07:29:29;;;;;;;;;;;8.90;36.30;;;;;;5053959;28;19935;-79
2021/11/15 07:31:54;;;;;;;;;;;8.90;99.90;;;;;;5060562;28;20034;-80
2021/11/15 07:34:22;;;;;;;;;;;8.90;99.90;;;;;;5052964;28;19925;-80
2021/11/15 07:36:47;;;;;;;;;;;9.00;99.90;;;;;;5049670;28;19921;-78
2021/11/15 07:39:13;;;;;;;;;;;9.00;99.90;;;;;;5054954;28;19936;-81
2021/11/15 07:41:38;;;;;;;;;;;9.10;70.90;;;;;;5045318;28;19928;-79
2021/11/15 07:44:04;;;;;;;;;;;9.10;23.00;;;;;;5055793;28;19912;-79
2021/11/15 07:46:29;;;;;;;;;;;9.10;18.30;;;;;;5036202;28;19924;-79
2021/11/15 07:48:55;;;;;;;;;;;9.10;1.00;;;;;;5024977;28;19939;-79
2021/11/15 07:51:20;;;;;;;;;;;9.10;1.00;;;;;;5059868;28;19913;-80
2021/11/15 07:53:46;;;;;;;;;;;9.10;1.00;;;;;;5054321;28;19913;-81
2021/11/15 07:56:11;;;;;;;;;;;9.10;1.00;;;;;;5050697;28;19917;-79
2021/11/15 07:58:37;;;;;;;;;;;9.10;1.00;;;;;;5033378;28;19917;-80
2021/11/15 08:01:03;;;;;;;;;;;9.10;1.00;;;;;;5053944;28;19978;-81
2021/11/15 08:03:29;;;;;;;;;;;9.10;1.00;;;;;;5057630;28;19913;-79
2021/11/15 08:05:54;;;;;;;;;;;9.10;1.00;;;;;;5043872;28;19916;-77
2021/11/15 08:08:20;;;;;;;;;;;9.10;1.00;;;;;;5034403;28;20373;-79
2021/11/15 08:10:45;;;;;;;;;;;9.10;1.00;;;;;;5052847;28;19913;-80
2021/11/15 08:13:11;;;;;;;;;;;9.10;1.00;;;;;;5033724;28;19921;-82
2021/11/15 08:15:36;;;;;;;;;;;9.10;1.00;;;;;;5039093;28;19921;-79
2021/11/15 08:18:05;;;;;;;;;;;9.20;1.00;;;;;;5048806;28;19913;-78
2021/11/15 08:20:38;;;;;;;;;;;9.20;1.00;;;;;;5032189;28;19912;-79
2021/11/15 08:23:05;;;;;;;;;;;9.20;1.00;;;;;;5024542;28;19944;-79
2021/11/15 08:25:51;;;;;;;;;;;9.10;99.90;;;;;;5047130;28;19924;-78
2021/11/15 08:28:18;;;;;;;;;;;9.00;99.90;;;;;;5041021;28;19917;-76
2021/11/15 08:30:43;;;;;;;;;;;9.00;99.90;;;;;;5047243;28;20769;-79
2021/11/15 08:33:09;;;;;;;;;;;9.10;1.00;;;;;;5034011;28;19913;-78
2021/11/15 08:35:34;;;;;;;;;;;9.10;99.90;;;;;;5072129;23;20387;-78
2021/11/15 08:38:15;;;;;;;;;;;9.10;99.90;;;;;;5052251;28;20007;-79
2021/11/15 08:40:42;;;;;;;;;;;9.10;99.90;;;;;;5069344;28;19913;-80
2021/11/15 08:43:07;;;;;;;;;;;9.10;99.90;;;;;;5055921;28;19912;-80
2021/11/15 08:45:35;;;;;;;;;;;9.10;99.90;;;;;;5050722;28;20011;-79
2021/11/15 08:48:02;;;;;;;;;;;9.10;99.90;;;;;;5031143;28;19992;-80
2021/11/15 08:50:28;;;;;;;;;;;9.10;99.90;;;;;;5047780;28;19913;-80
2021/11/15 08:52:53;;;;;;;;;;;9.10;99.90;;;;;;5053338;28;19915;-81
2021/11/15 08:55:19;;;;;;;;;;;9.00;99.90;;;;;;5052259;28;19913;-80
2021/11/15 08:57:44;;;;;;;;;;;9.00;99.90;;;;;;5033012;28;19964;-80
2021/11/15 09:00:10;;;;;;;;;;;9.00;99.90;;;;;;5048664;28;19920;-80
2021/11/15 09:02:36;;;;;;;;;;;9.00;99.90;;;;;;5048496;28;19913;-79
2021/11/15 09:05:01;;;;;;;;;;;9.10;99.90;;;;;;5027036;28;19913;-80
2021/11/15 09:07:27;;;;;;;;;;;9.10;99.90;;;;;;5047961;28;19963;-80
2021/11/15 09:09:53;;;;;;;;;;;9.20;99.90;;;;;;5032108;28;20305;-80
2021/11/15 09:12:18;;;;;;;;;;;9.20;99.90;;;;;;5028958;28;19919;-80
2021/11/15 09:14:44;;;;;;;;;;;9.30;99.90;;;;;;5048305;28;20413;-80
2021/11/15 09:17:10;;;;;;;;;;;9.20;36.70;;;;;;5043079;28;20003;-80
2021/11/15 09:19:35;;;;;;;;;;;9.20;82.40;;;;;;5043502;28;19917;-80
2021/11/15 09:22:01;;;;;;;;;;;9.30;99.90;;;;;;5052128;28;19963;-80
2021/11/15 09:24:27;;;;;;;;;;;9.30;99.90;;;;;;5051684;28;20365;-80
2021/11/15 09:26:53;;;;;;;;;;;9.30;1.00;;;;;;5049450;28;19924;-80
2021/11/15 09:29:21;;;;;;;;;;;9.20;1.00;;;;;;5053739;28;19982;-80
2021/11/15 09:31:47;;;;;;;;;;;9.20;1.00;;;;;;5051271;28;19920;-81
2021/11/15 09:34:13;;;;;;;;;;;9.20;1.00;;;;;;5055574;28;19917;-81
2021/11/15 09:36:39;;;;;;;;;;;9.10;1.00;;;;;;5035965;28;19981;-80
2021/11/15 09:39:05;;;;;;;;;;;9.10;1.00;;;;;;5047124;28;19984;-80
2021/11/15 09:41:31;;;;;;;;;;;9.00;1.00;;;;;;5058160;28;19919;-80
2021/11/15 09:43:56;;;;;;;;;;;9.00;1.00;;;;;;5054609;28;20444;-80
2021/11/15 09:46:24;;;;;;;;;;;9.00;1.00;;;;;;5060637;28;19944;-80
2021/11/15 09:48:51;;;;;;;;;;;9.10;1.00;;;;;;5050746;28;19913;-80
2021/11/15 09:51:17;;;;;;;;;;;9.10;1.00;;;;;;5047997;28;20613;-79
2021/11/15 09:53:43;;;;;;;;;;;9.10;1.00;;;;;;5029128;28;19917;-80
2021/11/15 09:56:09;;;;;;;;;;;9.10;1.00;;;;;;5043249;28;20300;-80
2021/11/15 09:58:36;;;;;;;;;;;9.00;99.90;;;;;;5052513;28;19908;-80
2021/11/15 10:01:02;;;;;;;;;;;9.00;99.90;;;;;;5035335;28;20058;-80
2021/11/15 10:03:28;;;;;;;;;;;9.10;1.00;;;;;;5032531;28;19917;-81
2021/11/15 10:05:53;;;;;;;;;;;9.00;1.00;;;;;;5038089;28;20430;-80
2021/11/15 10:08:19;;;;;;;;;;;9.10;1.00;;;;;;5049470;28;20304;-80
2021/11/15 10:10:55;;;;;;;;;;;9.00;99.90;;;;;;5034420;28;19966;-81
2021/11/15 10:13:23;;;;;;;;;;;9.00;1.00;;;;;;5039812;28;19913;-81
2021/11/15 10:15:49;;;;;;;;;;;8.90;1.00;;;;;;5036314;28;19956;-81
2021/11/15 10:18:19;;;;;;;;;;;8.90;1.00;;;;;;5052757;28;19913;-77
2021/11/15 10:20:52;;;;;;;;;;;8.90;19.50;;;;;;5027835;28;20424;-81
2021/11/15 10:23:44;;;;;;;;;;;9.00;18.10;;;;;;5031881;28;20352;-81
2021/11/15 10:26:11;;;;;;;;;;;9.00;58.20;;;;;;5049224;28;20011;-80
2021/11/15 10:28:37;;;;;;;;;;;9.00;99.90;;;;;;5035388;28;19921;-80
2021/11/15 10:31:02;;;;;;;;;;;9.10;99.90;;;;;;5050801;28;20007;-80
2021/11/15 10:33:35;;;;;;;;;;;9.10;99.90;;;;;;5050659;28;19955;-81
2021/11/15 10:36:01;;;;;;;;;;;9.10;99.90;;;;;;5045271;28;19923;-78
2021/11/15 10:38:38;;;;;;;;;;;9.20;99.90;;;;;;5037140;28;19941;-81
2021/11/15 10:41:17;;;;;;;;;;;9.20;92.90;;;;;;5045100;28;19913;-78
2021/11/15 10:43:44;;;;;;;;;;;9.20;1.00;;;;;;5048707;28;19948;-78
2021/11/15 10:46:26;;;;;;;;;;;9.20;1.00;;;;;;5049975;28;20284;-79
2021/11/15 10:48:55;;;;;;;;;;;9.30;1.00;;;;;;5051533;28;19920;-81
2021/11/15 10:51:40;;;;;;;;;;;9.20;1.00;;;;;;5053317;28;19998;-78
2021/11/15 10:54:27;;;;;;;;;;;9.20;1.00;;;;;;5050616;28;19913;-79
2021/11/15 10:56:54;;;;;;;;;;;9.10;1.00;;;;;;5035113;28;19913;-79
2021/11/15 10:59:20;;;;;;;;;;;9.10;1.00;;;;;;5036967;28;19917;-79
2021/11/15 11:01:45;;;;;;;;;;;9.20;1.00;;;;;;5034360;28;20410;-80
2021/11/15 11:04:12;;;;;;;;;;;9.10;1.00;;;;;;5037242;28;20038;-79
2021/11/15 11:07:13;;;;;;;;;;;9.10;1.00;;;;;;5037089;28;19947;-80
2021/11/15 11:09:39;;;;;;;;;;;9.10;1.00;;;;;;4956278;28;20350;-79
2021/11/15 11:12:20;;;;;;;;;;;9.10;1.00;;;;;;5026341;28;20372;-79
2021/11/15 11:14:46;;;;;;;;;;;9.10;1.00;;;;;;5049188;28;19912;-79
2021/11/15 11:17:12;;;;;;;;;;;9.10;1.00;;;;;;5035069;28;19935;-80
2021/11/15 11:20:06;;;;;;;;;;;9.10;1.00;;;;;;5030500;28;19917;-79
2021/11/15 11:23:05;;;;;;;;;;;9.10;1.00;;;;;;5053704;28;19920;-80
2021/11/15 11:25:31;;;;;;;;;;;9.10;1.00;;;;;;5043413;28;19971;-80
2021/11/15 11:27:56;;;;;;;;;;;9.10;1.00;;;;;;5050420;28;19916;-79
2021/11/15 11:30:22;;;;;;;;;;;9.10;1.00;;;;;;5034524;28;19920;-79
2021/11/15 11:32:51;;;;;;;;;;;9.10;1.00;;;;;;5047936;28;19952;-79
2021/11/15 11:35:17;;;;;;;;;;;9.10;1.00;;;;;;5051514;28;19939;-80
2021/11/15 11:37:42;;;;;;;;;;;9.10;1.00;;;;;;5044950;28;20008;-80
2021/11/15 11:40:08;;;;;;;;;;;9.10;1.00;;;;;;5035319;28;19916;-80
2021/11/15 11:42:33;;;;;;;;;;;9.10;1.00;;;;;;5051749;28;19908;-79
2021/11/15 11:44:59;;;;;;;;;;;9.10;1.00;;;;;;5053130;28;20027;-79
2021/11/15 11:47:27;;;;;;;;;;;9.10;1.00;;;;;;5053383;28;19912;-79
2021/11/15 11:49:55;;;;;;;;;;;9.20;1.00;;;;;;5028830;28;19909;-79
2021/11/15 11:52:26;;;;;;;;;;;9.30;1.00;;;;;;5034515;28;20379;-78
2021/11/15 11:54:52;;;;;;;;;;;9.30;1.00;;;;;;5042389;28;20312;-79
2021/11/15 11:57:22;;;;;;;;;;;9.30;1.00;;;;;;5054125;28;19917;-79
2021/11/15 11:59:47;;;;;;;;;;;9.30;1.00;;;;;;5034259;28;19920;-79
2021/11/15 12:02:18;;;;;;;;;;;9.20;99.90;;;;;;5032933;28;19913;-79
2021/11/15 12:04:45;;;;;;;;;;;9.20;1.00;;;;;;5043807;28;19913;-79
2021/11/15 12:07:38;;;;;;;;;;;9.20;1.00;;;;;;5046285;28;19917;-79
2021/11/15 12:10:03;;;;;;;;;;;9.10;1.00;;;;;;5032027;28;19913;-80
2021/11/15 12:12:49;;;;;;;;;;;9.10;1.00;;;;;;5046800;28;19997;-79
2021/11/15 12:15:28;;;;;;;;;;;9.20;1.00;;;;;;5049996;28;19913;-80
2021/11/15 12:18:03;;;;;;;;;;;9.20;1.00;;;;;;5042992;28;19913;-80
2021/11/15 12:20:29;;;;;;;;;;;9.10;99.90;;;;;;5049099;28;20360;-80
2021/11/15 12:22:57;;;;;;;;;;;9.10;1.00;;;;;;5033007;28;19916;-80
2021/11/15 12:25:25;;;;;;;;;;;9.20;1.00;;;;;;5028242;28;19992;-81
2021/11/15 12:27:52;;;;;;;;;;;9.20;1.00;;;;;;5047256;28;19913;-80
2021/11/15 12:30:37;;;;;;;;;;;9.20;99.90;;;;;;5041397;28;19924;-79
2021/11/15 12:33:21;;;;;;;;;;;9.20;99.90;;;;;;5030264;28;19920;-79
2021/11/15 12:36:05;;;;;;;;;;;9.20;99.90;;;;;;5054268;28;19928;-81
2021/11/15 12:38:32;;;;;;;;;;;9.30;22.10;;;;;;5049240;28;19913;-80
2021/11/15 12:40:58;;;;;;;;;;;9.30;1.00;;;;;;5030537;28;19923;-80
2021/11/15 12:43:23;;;;;;;;;;;9.30;1.00;;;;;;5044253;28;19913;-80
2021/11/15 12:45:51;;;;;;;;;;;9.30;1.00;;;;;;5051864;28;19916;-79
2021/11/15 12:48:33;;;;;;;;;;;9.30;1.00;;;;;;5049682;28;19919;-80
2021/11/15 12:51:08;;;;;;;;;;;9.30;99.90;;;;;;5040179;28;20024;-80
2021/11/15 12:53:33;;;;;;;;;;;9.30;99.90;;;;;;5063195;28;19909;-80
2021/11/15 12:55:59;;;;;;;;;;;9.30;99.90;;;;;;5058323;28;19913;-79
2021/11/15 12:58:24;;;;;;;;;;;9.30;38.70;;;;;;5043361;28;19920;-79
2021/11/15 13:00:50;;;;;;;;;;;9.30;1.20;;;;;;5052882;28;19913;-79
2021/11/15 13:03:15;;;;;;;;;;;9.30;23.50;;;;;;5072476;28;19908;-81
2021/11/15 13:05:41;;;;;;;;;;;9.30;45.10;;;;;;5059238;28;20317;-80
2021/11/15 13:08:08;;;;;;;;;;;9.20;1.00;;;;;;5056745;28;19928;-80
2021/11/15 13:10:35;;;;;;;;;;;9.20;1.00;;;;;;5049490;28;19932;-80
2021/11/15 13:13:01;;;;;;;;;;;9.20;1.10;;;;;;5033934;28;19920;-79
2021/11/15 13:15:27;;;;;;;;;;;9.20;1.00;;;;;;5057158;28;19920;-79
2021/11/15 13:17:54;;;;;;;;;;;9.20;1.00;;;;;;5053489;28;19913;-81
2021/11/15 13:20:19;;;;;;;;;;;9.20;1.00;;;;;;5035953;28;19979;-80
2021/11/15 13:22:46;;;;;;;;;;;9.20;1.00;;;;;;5035888;28;19913;-79
2021/11/15 13:25:12;;;;;;;;;;;9.20;1.00;;;;;;5049128;28;20280;-80
2021/11/15 13:27:38;;;;;;;;;;;9.10;1.00;;;;;;5052995;28;19932;-79
2021/11/15 13:30:05;;;;;;;;;;;9.20;1.00;;;;;;5055396;28;19909;-79
2021/11/15 13:32:32;;;;;;;;;;;9.10;1.00;;;;;;5031384;28;19913;-78
2021/11/15 13:34:57;;;;;;;;;;;9.20;47.70;;;;;;5054278;28;19924;-79
2021/11/15 13:37:23;;;;;;;;;;;9.20;99.90;;;;;;5049085;28;19916;-79
2021/11/15 13:39:49;;;;;;;;;;;9.20;87.00;;;;;;5048545;28;20020;-79
2021/11/15 13:42:15;;;;;;;;;;;9.20;1.00;;;;;;5030955;28;19952;-80
2021/11/15 13:44:40;;;;;;;;;;;9.10;1.00;;;;;;5047451;28;19920;-79
2021/11/15 13:47:06;;;;;;;;;;;9.10;1.00;;;;;;5040881;28;20377;-79
2021/11/15 13:49:33;;;;;;;;;;;9.10;1.00;;;;;;5051118;28;19959;-80
2021/11/15 13:51:59;;;;;;;;;;;9.10;1.00;;;;;;5044414;28;19913;-80
2021/11/15 13:54:24;;;;;;;;;;;9.20;1.00;;;;;;5055111;28;19963;-80
2021/11/15 13:56:50;;;;;;;;;;;9.20;1.00;;;;;;5043584;28;19957;-80
2021/11/15 13:59:15;;;;;;;;;;;9.20;1.00;;;;;;5055359;28;19912;-80
2021/11/15 14:01:42;;;;;;;;;;;9.20;99.90;;;;;;5038355;28;19920;-79
2021/11/15 14:04:08;;;;;;;;;;;9.20;99.90;;;;;;5038472;28;19916;-80
2021/11/15 14:06:33;;;;;;;;;;;9.20;1.00;;;;;;5035895;28;20006;-79
2021/11/15 14:09:00;;;;;;;;;;;9.20;1.00;;;;;;5055393;28;20338;-80
2021/11/15 14:11:25;;;;;;;;;;;9.30;1.00;;;;;;5056641;28;19909;-79
2021/11/15 14:13:51;;;;;;;;;;;9.30;1.00;;;;;;5038722;28;20402;-79
2021/11/15 14:16:17;;;;;;;;;;;9.20;1.00;;;;;;5038552;28;19915;-80
2021/11/15 14:18:42;;;;;;;;;;;9.20;1.00;;;;;;5056408;28;19916;-79
2021/11/15 14:21:08;;;;;;;;;;;9.20;1.00;;;;;;5049945;28;19913;-79
2021/11/15 14:23:34;;;;;;;;;;;9.20;1.00;;;;;;5036592;28;20433;-79
2021/11/15 14:26:00;;;;;;;;;;;9.20;1.00;;;;;;5028161;28;20024;-79
2021/11/15 14:28:25;;;;;;;;;;;9.20;1.00;;;;;;5038592;28;19916;-80
2021/11/15 14:30:51;;;;;;;;;;;9.10;99.90;;;;;;5056648;28;19909;-79
2021/11/15 14:33:16;;;;;;;;;;;9.10;99.90;;;;;;5038700;28;19915;-79
2021/11/15 14:35:42;;;;;;;;;;;9.00;99.90;;;;;;5094354;22;19931;-81
2021/11/15 14:38:09;;;;;;;;;;;9.00;99.90;;;;;;5102241;28;19915;-79